Terminal Aerodrome Forecast
Issued by NWS Sterling, VA

Current Version | Previous Version | Graphics & Text | Print | Product List | Glossary On
Versions: 1 2 3 4 5 6 7 8 9 10 11 12 13 14 15 16 17 18 19 20 21
000
FTUS41 KLWX 190521
TAFIAD
TAF
KIAD 190521Z 1906/2012 VRB03KT 5SM BR FEW250
     FM191300 VRB03KT P6SM FEW250
     FM200600 29004KT 5SM BR FEW250=

USA.gov is the U.S. government's official web portal to all federal, state and local government web resources and services.